sensor_id;sensor_type;location;lat;lon;timestamp;pressure;altitude;pressure_sealevel;temperature;humidity
4814;BME280;15375;48.540;9.268;2023-04-08T00:00:32;97574.13;;;7.68;100.00
4814;BME280;15375;48.540;9.268;2023-04-08T00:02:58;97526.53;;;7.42;100.00
4814;BME280;15375;48.540;9.268;2023-04-08T00:05:23;97559.41;;;7.65;100.00
4814;BME280;15375;48.540;9.268;2023-04-08T00:07:49;97544.69;;;7.63;100.00
4814;BME280;15375;48.540;9.268;2023-04-08T00:10:14;97568.69;;;7.79;100.00
4814;BME280;15375;48.540;9.268;2023-04-08T00:12:39;97525.72;;;7.52;100.00
4814;BME280;15375;48.540;9.268;2023-04-08T00:15:05;97571.00;;;7.84;100.00
4814;BME280;15375;48.540;9.268;2023-04-08T00:17:31;97549.69;;;7.71;100.00
4814;BME280;15375;48.540;9.268;2023-04-08T00:19:57;97554.00;;;7.62;100.00
4814;BME280;15375;48.540;9.268;2023-04-08T00:22:22;97548.97;;;7.57;100.00
4814;BME280;15375;48.540;9.268;2023-04-08T00:24:48;97553.63;;;7.53;100.00
4814;BME280;15375;48.540;9.268;2023-04-08T00:27:13;97540.88;;;7.39;100.00
4814;BME280;15375;48.540;9.268;2023-04-08T00:29:39;97552.47;;;7.54;100.00
4814;BME280;15375;48.540;9.268;2023-04-08T00:32:04;97540.06;;;7.49;100.00
4814;BME280;15375;48.540;9.268;2023-04-08T00:34:30;97526.53;;;7.42;100.00
4814;BME280;15375;48.540;9.268;2023-04-08T00:36:56;97526.16;;;7.37;100.00
4814;BME280;15375;48.540;9.268;2023-04-08T00:39:21;97563.31;;;7.64;100.00
4814;BME280;15375;48.540;9.268;2023-04-08T00:41:47;97556.34;;;7.60;100.00
4814;BME280;15375;48.540;9.268;2023-04-08T00:44:12;97551.69;;;7.53;100.00
4814;BME280;15375;48.540;9.268;2023-04-08T00:46:38;97542.41;;;7.44;100.00
4814;BME280;15375;48.540;9.268;2023-04-08T00:49:05;97578.41;;;7.69;100.00
4814;BME280;15375;48.540;9.268;2023-04-08T00:51:31;97563.69;;;7.56;100.00
4814;BME280;15375;48.540;9.268;2023-04-08T00:53:57;97564.84;;;7.65;100.00
4814;BME280;15375;48.540;9.268;2023-04-08T00:56:25;97568.34;;;7.69;100.00
4814;BME280;15375;48.540;9.268;2023-04-08T00:58:51;97552.81;;;7.63;100.00
4814;BME280;15375;48.540;9.268;2023-04-08T01:01:33;97588.84;;;7.85;100.00
4814;BME280;15375;48.540;9.268;2023-04-08T01:07:02;97583.41;;;7.85;100.00
4814;BME280;15375;48.540;9.268;2023-04-08T01:09:35;97566.38;;;7.73;100.00
4814;BME280;15375;48.540;9.268;2023-04-08T01:12:05;97582.63;;;7.84;100.00
4814;BME280;15375;48.540;9.268;2023-04-08T01:14:34;97561.72;;;7.70;100.00
4814;BME280;15375;48.540;9.268;2023-04-08T01:17:03;97576.03;;;7.85;100.00
4814;BME280;15375;48.540;9.268;2023-04-08T01:19:33;97540.81;;;7.64;100.00
4814;BME280;15375;48.540;9.268;2023-04-08T01:22:12;97543.91;;;7.66;100.00
4814;BME280;15375;48.540;9.268;2023-04-08T01:24:42;97588.41;;;7.93;100.00
4814;BME280;15375;48.540;9.268;2023-04-08T01:27:09;97551.66;;;7.64;100.00
4814;BME280;15375;48.540;9.268;2023-04-08T01:29:36;97528.44;;;7.49;100.00
4814;BME280;15375;48.540;9.268;2023-04-08T01:32:02;97557.88;;;7.61;100.00
4814;BME280;15375;48.540;9.268;2023-04-08T01:34:28;97590.03;;;7.80;100.00
4814;BME280;15375;48.540;9.268;2023-04-08T01:36:54;97566.41;;;7.70;100.00
4814;BME280;15375;48.540;9.268;2023-04-08T01:39:21;97563.31;;;7.64;100.00
4814;BME280;15375;48.540;9.268;2023-04-08T01:41:48;97577.22;;;7.73;100.00
4814;BME280;15375;48.540;9.268;2023-04-08T01:44:15;97567.94;;;7.64;100.00
4814;BME280;15375;48.540;9.268;2023-04-08T01:46:41;97583.44;;;7.70;100.00
4814;BME280;15375;48.540;9.268;2023-04-08T01:49:08;97547.09;;;7.36;100.00
4814;BME280;15375;48.540;9.268;2023-04-08T01:51:37;97558.66;;;7.51;100.00
4814;BME280;15375;48.540;9.268;2023-04-08T01:54:03;97556.38;;;7.49;100.00
4814;BME280;15375;48.540;9.268;2023-04-08T01:56:31;97545.88;;;7.48;100.00
4814;BME280;15375;48.540;9.268;2023-04-08T01:59:00;97528.09;;;7.33;100.00
4814;BME280;15375;48.540;9.268;2023-04-08T02:01:29;97571.44;;;7.64;100.00
4814;BME280;15375;48.540;9.268;2023-04-08T02:03:57;97567.56;;;7.58;100.00
4814;BME280;15375;48.540;9.268;2023-04-08T02:06:25;97521.50;;;7.34;100.00
4814;BME280;15375;48.540;9.268;2023-04-08T02:08:53;97554.03;;;7.51;100.00
4814;BME280;15375;48.540;9.268;2023-04-08T02:11:18;97543.16;;;7.48;100.00
4814;BME280;15375;48.540;9.268;2023-04-08T02:13:44;97582.66;;;7.77;100.00
4814;BME280;15375;48.540;9.268;2023-04-08T02:16:15;97564.84;;;7.65;100.00
4814;BME280;15375;48.540;9.268;2023-04-08T02:18:45;97569.50;;;7.65;100.00
4814;BME280;15375;48.540;9.268;2023-04-08T02:21:14;97561.38;;;7.61;100.00
4814;BME280;15375;48.540;9.268;2023-04-08T02:23:40;97586.16;;;7.70;100.00
4814;BME280;15375;48.540;9.268;2023-04-08T02:26:12;97556.75;;;7.51;100.00
4814;BME280;15375;48.540;9.268;2023-04-08T02:28:39;97575.72;;;7.62;100.00
4814;BME280;15375;48.540;9.268;2023-04-08T02:31:10;97549.00;;;7.43;100.00
4814;BME280;15375;48.540;9.268;2023-04-08T02:33:39;97572.63;;;7.56;100.00
4814;BME280;15375;48.540;9.268;2023-04-08T02:36:05;97554.44;;;7.46;100.00
4814;BME280;15375;48.540;9.268;2023-04-08T02:38:31;97547.09;;;7.40;100.00
4814;BME280;15375;48.540;9.268;2023-04-08T02:40:57;97562.16;;;7.48;100.00
4814;BME280;15375;48.540;9.268;2023-04-08T02:43:23;97565.28;;;7.50;100.00
4814;BME280;15375;48.540;9.268;2023-04-08T02:45:56;97569.56;;;7.47;100.00
4814;BME280;15375;48.540;9.268;2023-04-08T02:48:21;97539.34;;;7.28;100.00
4814;BME280;15375;48.540;9.268;2023-04-08T02:50:46;97586.59;;;7.55;100.00
4814;BME280;15375;48.540;9.268;2023-04-08T02:53:12;97505.28;;;7.05;100.00
4814;BME280;15375;48.540;9.268;2023-04-08T02:55:37;97563.75;;;7.38;100.00
4814;BME280;15375;48.540;9.268;2023-04-08T02:58:03;97568.38;;;7.38;100.00
4814;BME280;15375;48.540;9.268;2023-04-08T03:00:29;97556.41;;;7.32;100.00
4814;BME280;15375;48.540;9.268;2023-04-08T03:02:54;97597.44;;;7.62;100.00
4814;BME280;15375;48.540;9.268;2023-04-08T03:05:20;97542.44;;;7.26;100.00
4814;BME280;15375;48.540;9.268;2023-04-08T03:07:45;97597.44;;;7.62;100.00
4814;BME280;15375;48.540;9.268;2023-04-08T03:10:11;97586.19;;;7.53;100.00
4814;BME280;15375;48.540;9.268;2023-04-08T03:12:36;97599.38;;;7.61;100.00
4814;BME280;15375;48.540;9.268;2023-04-08T03:15:02;97570.31;;;7.48;100.00
4814;BME280;15375;48.540;9.268;2023-04-08T03:17:28;97597.81;;;7.64;100.00
4814;BME280;15375;48.540;9.268;2023-04-08T03:19:53;97578.06;;;7.49;100.00
4814;BME280;15375;48.540;9.268;2023-04-08T03:22:19;97580.00;;;7.56;100.00
4814;BME280;15375;48.540;9.268;2023-04-08T03:24:44;97579.63;;;7.54;100.00
4814;BME280;15375;48.540;9.268;2023-04-08T03:27:10;97504.13;;;7.03;100.00
4814;BME280;15375;48.540;9.268;2023-04-08T03:29:37;97586.59;;;7.55;100.00
4814;BME280;15375;48.540;9.268;2023-04-08T03:32:02;97550.19;;;7.21;100.00
4814;BME280;15375;48.540;9.268;2023-04-08T03:34:27;97521.16;;;7.11;100.00
4814;BME280;15375;48.540;9.268;2023-04-08T03:36:53;97589.31;;;7.55;100.00
4814;BME280;15375;48.540;9.268;2023-04-08T03:39:18;97583.50;;;7.49;100.00
4814;BME280;15375;48.540;9.268;2023-04-08T03:41:44;97581.97;;;7.41;100.00
4814;BME280;15375;48.540;9.268;2023-04-08T03:44:09;97575.38;;;7.39;100.00
4814;BME280;15375;48.540;9.268;2023-04-08T03:46:34;97602.47;;;7.53;100.00
4814;BME280;15375;48.540;9.268;2023-04-08T03:49:00;97565.72;;;7.27;100.00
4814;BME280;15375;48.540;9.268;2023-04-08T03:51:25;97569.97;;;7.25;100.00
4814;BME280;15375;48.540;9.268;2023-04-08T03:53:52;97565.69;;;7.20;100.00
4814;BME280;15375;48.540;9.268;2023-04-08T03:56:17;97575.38;;;7.28;100.00
4814;BME280;15375;48.540;9.268;2023-04-08T03:58:43;97584.28;;;7.43;100.00
4814;BME280;15375;48.540;9.268;2023-04-08T04:01:08;97603.66;;;7.52;100.00
4814;BME280;15375;48.540;9.268;2023-04-08T04:03:33;97568.41;;;7.31;100.00
4814;BME280;15375;48.540;9.268;2023-04-08T04:05:59;97568.41;;;7.31;100.00
4814;BME280;15375;48.540;9.268;2023-04-08T04:08:24;97569.22;;;7.17;100.00
4814;BME280;15375;48.540;9.268;2023-04-08T04:10:50;97557.56;;;7.02;100.00
4814;BME280;15375;48.540;9.268;2023-04-08T04:13:15;97594.78;;;7.27;100.00
4814;BME280;15375;48.540;9.268;2023-04-08T04:15:41;97573.84;;;6.99;100.00
4814;BME280;15375;48.540;9.268;2023-04-08T04:18:06;97563.78;;;6.99;100.00
4814;BME280;15375;48.540;9.268;2023-04-08T04:20:32;97549.44;;;6.88;100.00
4814;BME280;15375;48.540;9.268;2023-04-08T04:22:57;97565.72;;;6.95;100.00
4814;BME280;15375;48.540;9.268;2023-04-08T04:25:23;97575.78;;;6.88;100.00
4814;BME280;15375;48.540;9.268;2023-04-08T04:27:48;97582.75;;;6.85;100.00
4814;BME280;15375;48.540;9.268;2023-04-08T04:30:14;97575.78;;;6.81;100.00
4814;BME280;15375;48.540;9.268;2023-04-08T04:32:42;97588.19;;;6.85;100.00
4814;BME280;15375;48.540;9.268;2023-04-08T04:35:09;97613.78;;;7.02;100.00
4814;BME280;15375;48.540;9.268;2023-04-08T04:37:34;97611.44;;;6.97;100.00
4814;BME280;15375;48.540;9.268;2023-04-08T04:40:01;97590.50;;;6.90;100.00
4814;BME280;15375;48.540;9.268;2023-04-08T04:42:26;97609.47;;;6.97;100.00
4814;BME280;15375;48.540;9.268;2023-04-08T04:44:51;97607.16;;;6.85;100.00
4814;BME280;15375;48.540;9.268;2023-04-08T04:47:18;97602.09;;;6.73;100.00
4814;BME280;15375;48.540;9.268;2023-04-08T04:49:43;97606.75;;;6.69;100.00
4814;BME280;15375;48.540;9.268;2023-04-08T04:52:09;97587.34;;;6.50;100.00
4814;BME280;15375;48.540;9.268;2023-04-08T04:54:35;97583.47;;;6.47;100.00
4814;BME280;15375;48.540;9.268;2023-04-08T04:57:00;97605.56;;;6.63;100.00
4814;BME280;15375;48.540;9.268;2023-04-08T04:59:26;97591.22;;;6.52;100.00
4814;BME280;15375;48.540;9.268;2023-04-08T05:01:51;97584.66;;;6.57;100.00
4814;BME280;15375;48.540;9.268;2023-04-08T05:04:17;97607.53;;;6.66;100.00
4814;BME280;15375;48.540;9.268;2023-04-08T05:06:42;97580.00;;;6.57;100.00
4814;BME280;15375;48.540;9.268;2023-04-08T05:09:07;97593.59;;;6.75;100.00
4814;BME280;15375;48.540;9.268;2023-04-08T05:11:33;97606.00;;;6.90;100.00
4814;BME280;15375;48.540;9.268;2023-04-08T05:13:58;97602.50;;;6.86;100.00
4814;BME280;15375;48.540;9.268;2023-04-08T05:16:23;97585.84;;;6.77;100.00
4814;BME280;15375;48.540;9.268;2023-04-08T05:18:49;97609.88;;;6.89;100.00
4814;BME280;15375;48.540;9.268;2023-04-08T05:21:14;97602.91;;;6.81;100.00
4814;BME280;15375;48.540;9.268;2023-04-08T05:23:40;97628.06;;;6.88;100.00
4814;BME280;15375;48.540;9.268;2023-04-08T05:26:08;97619.19;;;6.84;100.00
4814;BME280;15375;48.540;9.268;2023-04-08T05:28:36;97595.16;;;6.79;100.00
4814;BME280;15375;48.540;9.268;2023-04-08T05:31:02;97626.16;;;7.10;100.00
4814;BME280;15375;48.540;9.268;2023-04-08T05:33:27;97620.75;;;7.06;100.00
4814;BME280;15375;48.540;9.268;2023-04-08T05:35:53;97633.13;;;7.18;100.00
4814;BME280;15375;48.540;9.268;2023-04-08T05:38:18;97647.09;;;7.24;100.00
4814;BME280;15375;48.540;9.268;2023-04-08T05:40:43;97628.88;;;7.06;100.00
4814;BME280;15375;48.540;9.268;2023-04-08T05:43:09;97598.28;;;6.92;100.00
4814;BME280;15375;48.540;9.268;2023-04-08T05:45:34;97631.56;;;7.10;100.00
4814;BME280;15375;48.540;9.268;2023-04-08T05:47:59;97633.91;;;7.15;100.00
4814;BME280;15375;48.540;9.268;2023-04-08T05:50:25;97653.31;;;7.35;100.00
4814;BME280;15375;48.540;9.268;2023-04-08T05:52:50;97641.66;;;7.20;100.00
4814;BME280;15375;48.540;9.268;2023-04-08T05:55:15;97637.78;;;7.11;100.00
4814;BME280;15375;48.540;9.268;2023-04-08T05:57:41;97640.88;;;7.09;100.00
4814;BME280;15375;48.540;9.268;2023-04-08T06:00:08;97661.06;;;7.22;100.00
4814;BME280;15375;48.540;9.268;2023-04-08T06:02:34;97633.91;;;7.12;100.00
4814;BME280;15375;48.540;9.268;2023-04-08T06:05:00;97655.22;;;7.34;100.00
4814;BME280;15375;48.540;9.268;2023-04-08T06:07:26;97671.91;;;7.47;100.00
4814;BME280;15375;48.540;9.268;2023-04-08T06:09:51;97618.41;;;7.19;100.00
4814;BME280;15375;48.540;9.268;2023-04-08T06:12:16;97674.19;;;7.73;100.00
4814;BME280;15375;48.540;9.268;2023-04-08T06:14:42;97623.44;;;7.52;100.00
4814;BME280;15375;48.540;9.268;2023-04-08T06:17:07;97654.41;;;7.80;100.00
4814;BME280;15375;48.540;9.268;2023-04-08T06:19:33;97653.22;;;7.84;100.00
4814;BME280;15375;48.540;9.268;2023-04-08T06:21:59;97668.34;;;7.99;100.00
4814;BME280;15375;48.540;9.268;2023-04-08T06:24:25;97685.75;;;8.12;100.00
4814;BME280;15375;48.540;9.268;2023-04-08T06:26:52;97666.75;;;8.09;100.00
4814;BME280;15375;48.540;9.268;2023-04-08T06:29:21;97645.03;;;7.98;100.00
4814;BME280;15375;48.540;9.268;2023-04-08T06:31:47;97682.63;;;8.21;100.00
4814;BME280;15375;48.540;9.268;2023-04-08T06:34:13;97667.91;;;8.15;100.00
4814;BME280;15375;48.540;9.268;2023-04-08T06:36:38;97683.84;;;8.13;100.00
4814;BME280;15375;48.540;9.268;2023-04-08T06:39:03;97660.19;;;8.03;100.00
4814;BME280;15375;48.540;9.268;2023-04-08T06:41:29;97676.47;;;8.06;100.00
4814;BME280;15375;48.540;9.268;2023-04-08T06:43:55;97694.34;;;7.97;100.00
4814;BME280;15375;48.540;9.268;2023-04-08T06:46:22;97673.41;;;7.83;100.00
4814;BME280;15375;48.540;9.268;2023-04-08T06:48:47;97596.69;;;7.37;100.00
4814;BME280;15375;48.540;9.268;2023-04-08T06:51:13;97680.75;;;7.93;100.00
4814;BME280;15375;48.540;9.268;2023-04-08T06:53:38;97671.06;;;7.92;100.00
4814;BME280;15375;48.540;9.268;2023-04-08T06:56:04;97653.28;;;7.70;100.00
4814;BME280;15375;48.540;9.268;2023-04-08T06:58:29;97629.25;;;7.40;100.00
4814;BME280;15375;48.540;9.268;2023-04-08T07:00:55;97689.31;;;7.81;100.00
4814;BME280;15375;48.540;9.268;2023-04-08T07:03:20;97673.06;;;7.67;100.00
4814;BME280;15375;48.540;9.268;2023-04-08T07:05:48;97698.25;;;7.75;100.00
4814;BME280;15375;48.540;9.268;2023-04-08T07:08:14;97692.06;;;7.60;100.00
4814;BME280;15375;48.540;9.268;2023-04-08T07:10:39;97680.03;;;7.61;100.00
4814;BME280;15375;48.540;9.268;2023-04-08T07:13:04;97662.59;;;7.41;100.00
4814;BME280;15375;48.540;9.268;2023-04-08T07:15:30;97684.28;;;7.58;100.00
4814;BME280;15375;48.540;9.268;2023-04-08T07:17:55;97709.13;;;7.75;100.00
4814;BME280;15375;48.540;9.268;2023-04-08T07:20:24;97697.47;;;7.78;100.00
4814;BME280;15375;48.540;9.268;2023-04-08T07:22:50;97717.59;;;7.91;100.00
4814;BME280;15375;48.540;9.268;2023-04-08T07:25:16;97688.94;;;7.79;100.00
4814;BME280;15375;48.540;9.268;2023-04-08T07:27:41;97697.84;;;7.76;100.00
4814;BME280;15375;48.540;9.268;2023-04-08T07:30:07;97719.97;;;7.82;100.00
4814;BME280;15375;48.540;9.268;2023-04-08T07:32:33;97726.53;;;7.98;100.00
4814;BME280;15375;48.540;9.268;2023-04-08T07:34:59;97700.19;;;7.78;100.00
4814;BME280;15375;48.540;9.268;2023-04-08T07:37:25;97734.31;;;7.93;100.00
4814;BME280;15375;48.540;9.268;2023-04-08T07:39:51;97690.09;;;7.71;100.00
4814;BME280;15375;48.540;9.268;2023-04-08T07:42:16;97682.38;;;7.62;100.00
4814;BME280;15375;48.540;9.268;2023-04-08T07:44:42;97699.78;;;7.86;100.00
4814;BME280;15375;48.540;9.268;2023-04-08T07:47:08;97739.72;;;8.03;100.00
4814;BME280;15375;48.540;9.268;2023-04-08T07:49:36;97728.09;;;7.99;100.00
4814;BME280;15375;48.540;9.268;2023-04-08T07:52:01;97699.03;;;7.82;100.00
4814;BME280;15375;48.540;9.268;2023-04-08T07:54:27;97712.97;;;7.95;100.00
4814;BME280;15375;48.540;9.268;2023-04-08T07:56:52;97705.19;;;7.93;100.00
4814;BME280;15375;48.540;9.268;2023-04-08T07:59:17;97729.22;;;8.16;100.00
4814;BME280;15375;48.540;9.268;2023-04-08T08:01:43;97662.56;;;7.76;100.00
4814;BME280;15375;48.540;9.268;2023-04-08T08:04:08;97697.41;;;8.09;100.00
4814;BME280;15375;48.540;9.268;2023-04-08T08:06:33;97706.31;;;8.38;100.00
4814;BME280;15375;48.540;9.268;2023-04-08T08:08:59;97684.94;;;8.40;100.00
4814;BME280;15375;48.540;9.268;2023-04-08T08:11:25;97718.97;;;8.69;100.00
4814;BME280;15375;48.540;9.268;2023-04-08T08:13:52;97718.22;;;8.65;100.00
4814;BME280;15375;48.540;9.268;2023-04-08T08:16:17;97714.31;;;8.66;100.00
4814;BME280;15375;48.540;9.268;2023-04-08T08:18:43;97736.72;;;8.98;100.00
4814;BME280;15375;48.540;9.268;2023-04-08T08:21:08;97746.69;;;9.19;100.00
4814;BME280;15375;48.540;9.268;2023-04-08T08:23:33;97745.53;;;9.20;100.00
4814;BME280;15375;48.540;9.268;2023-04-08T08:28:26;97743.13;;;9.29;100.00
4814;BME280;15375;48.540;9.268;2023-04-08T08:30:51;97708.31;;;9.03;100.00
4814;BME280;15375;48.540;9.268;2023-04-08T08:33:16;97687.16;;;8.59;100.00
4814;BME280;15375;48.540;9.268;2023-04-08T08:35:42;97707.31;;;8.76;100.00
4814;BME280;15375;48.540;9.268;2023-04-08T08:38:07;97659.94;;;8.66;100.00
4814;BME280;15375;48.540;9.268;2023-04-08T08:40:33;97727.31;;;9.10;100.00
4814;BME280;15375;48.540;9.268;2023-04-08T08:43:01;97746.00;;;9.08;100.00
4814;BME280;15375;48.540;9.268;2023-04-08T08:45:27;97712.56;;;9.11;100.00
4814;BME280;15375;48.540;9.268;2023-04-08T08:47:52;97727.38;;;9.03;100.00
4814;BME280;15375;48.540;9.268;2023-04-08T08:50:17;97747.13;;;9.14;100.00
4814;BME280;15375;48.540;9.268;2023-04-08T08:52:50;97760.72;;;9.18;100.00
4814;BME280;15375;48.540;9.268;2023-04-08T08:55:20;97752.19;;;9.12;100.00
4814;BME280;15375;48.540;9.268;2023-04-08T08:57:47;97730.47;;;9.02;100.00
4814;BME280;15375;48.540;9.268;2023-04-08T09:00:15;97751.50;;;9.01;100.00
4814;BME280;15375;48.540;9.268;2023-04-08T09:02:40;97761.53;;;9.11;100.00
4814;BME280;15375;48.540;9.268;2023-04-08T09:05:06;97708.44;;;8.82;100.00
4814;BME280;15375;48.540;9.268;2023-04-08T09:07:35;97745.22;;;9.08;100.00
4814;BME280;15375;48.540;9.268;2023-04-08T09:10:01;97743.59;;;9.21;100.00
4814;BME280;15375;48.540;9.268;2023-04-08T09:12:26;97759.81;;;9.35;100.00
4814;BME280;15375;48.540;9.268;2023-04-08T09:15:05;97758.38;;;9.20;100.00
4814;BME280;15375;48.540;9.268;2023-04-08T09:17:38;97776.53;;;9.40;100.00
4814;BME280;15375;48.540;9.268;2023-04-08T09:22:33;97760.63;;;9.32;100.00
4814;BME280;15375;48.540;9.268;2023-04-08T09:24:59;97758.06;;;9.66;100.00
4814;BME280;15375;48.540;9.268;2023-04-08T09:27:34;97775.72;;;9.95;100.00
4814;BME280;15375;48.540;9.268;2023-04-08T09:30:13;97736.44;;;9.92;100.00
4814;BME280;15375;48.540;9.268;2023-04-08T09:32:55;97756.78;;;10.25;100.00
4814;BME280;15375;48.540;9.268;2023-04-08T09:35:22;97754.25;;;10.45;96.69
4814;BME280;15375;48.540;9.268;2023-04-08T09:37:49;97769.31;;;10.90;92.75
4814;BME280;15375;48.540;9.268;2023-04-08T09:40:15;97760.06;;;11.14;86.18
4814;BME280;15375;48.540;9.268;2023-04-08T09:42:46;97764.06;;;11.06;92.45
4814;BME280;15375;48.540;9.268;2023-04-08T09:45:16;97730.09;;;11.37;88.69
4814;BME280;15375;48.540;9.268;2023-04-08T09:50:35;97768.00;;;11.32;86.43
4814;BME280;15375;48.540;9.268;2023-04-08T09:55:37;97728.72;;;11.49;80.62
4814;BME280;15375;48.540;9.268;2023-04-08T09:58:26;97755.66;;;11.77;77.68
4814;BME280;15375;48.540;9.268;2023-04-08T10:00:53;97726.47;;;11.94;76.47
4814;BME280;15375;48.540;9.268;2023-04-08T10:05:53;97726.41;;;11.97;78.23
4814;BME280;15375;48.540;9.268;2023-04-08T10:08:21;97768.28;;;12.37;80.77
4814;BME280;15375;48.540;9.268;2023-04-08T10:10:47;97769.69;;;13.08;79.00
4814;BME280;15375;48.540;9.268;2023-04-08T10:13:13;97731.06;;;12.82;65.81
4814;BME280;15375;48.540;9.268;2023-04-08T10:15:39;97747.13;;;13.00;69.60
4814;BME280;15375;48.540;9.268;2023-04-08T10:23:08;97736.59;;;12.79;68.65
4814;BME280;15375;48.540;9.268;2023-04-08T10:30:51;97737.09;;;12.74;54.87
4814;BME280;15375;48.540;9.268;2023-04-08T10:33:20;97744.91;;;13.31;55.17
4814;BME280;15375;48.540;9.268;2023-04-08T10:35:53;97710.69;;;13.03;57.00
4814;BME280;15375;48.540;9.268;2023-04-08T10:38:18;97756.00;;;13.43;61.88
4814;BME280;15375;48.540;9.268;2023-04-08T10:40:47;97757.88;;;13.47;63.61
4814;BME280;15375;48.540;9.268;2023-04-08T10:43:13;97727.53;;;13.37;62.86
4814;BME280;15375;48.540;9.268;2023-04-08T10:45:43;97739.72;;;13.53;59.06
4814;BME280;15375;48.540;9.268;2023-04-08T10:48:22;97762.00;;;12.79;65.18
4814;BME280;15375;48.540;9.268;2023-04-08T10:51:03;97739.06;;;12.73;62.12
4814;BME280;15375;48.540;9.268;2023-04-08T10:53:32;97753.22;;;12.49;62.24
4814;BME280;15375;48.540;9.268;2023-04-08T10:56:06;97757.72;;;12.16;62.84
4814;BME280;15375;48.540;9.268;2023-04-08T10:58:32;97742.88;;;11.94;66.90
4814;BME280;15375;48.540;9.268;2023-04-08T11:01:05;97748.28;;;11.74;67.85
4814;BME280;15375;48.540;9.268;2023-04-08T11:03:32;97759.44;;;11.83;66.63
4814;BME280;15375;48.540;9.268;2023-04-08T11:05:58;97711.00;;;11.34;67.59
4814;BME280;15375;48.540;9.268;2023-04-08T11:08:31;97754.41;;;11.55;69.28
4814;BME280;15375;48.540;9.268;2023-04-08T11:10:57;97734.50;;;11.28;69.78
4814;BME280;15375;48.540;9.268;2023-04-08T11:13:25;97712.88;;;10.83;69.55
4814;BME280;15375;48.540;9.268;2023-04-08T11:15:51;97726.66;;;10.73;71.14
4814;BME280;15375;48.540;9.268;2023-04-08T11:18:16;97732.78;;;10.80;69.75
4814;BME280;15375;48.540;9.268;2023-04-08T11:20:45;97742.22;;;11.06;67.43
4814;BME280;15375;48.540;9.268;2023-04-08T11:23:14;97736.31;;;11.08;66.03
4814;BME280;15375;48.540;9.268;2023-04-08T11:25:40;97728.91;;;10.78;67.25
4814;BME280;15375;48.540;9.268;2023-04-08T11:28:07;97757.78;;;10.79;66.68
4814;BME280;15375;48.540;9.268;2023-04-08T11:30:33;97736.94;;;10.62;67.73
4814;BME280;15375;48.540;9.268;2023-04-08T11:32:58;97743.44;;;10.71;67.25
4814;BME280;15375;48.540;9.268;2023-04-08T11:35:27;97769.38;;;10.86;68.06
4814;BME280;15375;48.540;9.268;2023-04-08T11:37:54;97741.56;;;10.65;66.54
4814;BME280;15375;48.540;9.268;2023-04-08T11:40:20;97746.31;;;10.57;61.86
4814;BME280;15375;48.540;9.268;2023-04-08T11:42:50;97733.09;;;10.56;64.19
4814;BME280;15375;48.540;9.268;2023-04-08T11:45:18;97752.00;;;10.70;65.23
4814;BME280;15375;48.540;9.268;2023-04-08T11:47:47;97732.91;;;10.70;64.01
4814;BME280;15375;48.540;9.268;2023-04-08T11:50:25;97752.25;;;10.82;63.71
4814;BME280;15375;48.540;9.268;2023-04-08T11:52:51;97742.97;;;10.76;62.42
4814;BME280;15375;48.540;9.268;2023-04-08T11:55:25;97762.09;;;10.76;63.41
4814;BME280;15375;48.540;9.268;2023-04-08T11:57:51;97757.44;;;10.73;65.58
4814;BME280;15375;48.540;9.268;2023-04-08T12:00:18;97751.19;;;10.73;64.29
4814;BME280;15375;48.540;9.268;2023-04-08T12:02:44;97726.31;;;10.67;63.98
4814;BME280;15375;48.540;9.268;2023-04-08T12:05:11;97760.75;;;10.88;62.71
4814;BME280;15375;48.540;9.268;2023-04-08T12:07:36;97742.22;;;10.76;63.11
4814;BME280;15375;48.540;9.268;2023-04-08T12:10:02;97749.06;;;10.87;61.92
4814;BME280;15375;48.540;9.268;2023-04-08T12:12:28;97745.94;;;10.89;62.57
4814;BME280;15375;48.540;9.268;2023-04-08T12:14:53;97721.53;;;10.78;65.25
4814;BME280;15375;48.540;9.268;2023-04-08T12:17:18;97743.25;;;10.85;63.10
4814;BME280;15375;48.540;9.268;2023-04-08T12:19:44;97732.75;;;10.84;60.98
4814;BME280;15375;48.540;9.268;2023-04-08T12:22:10;97754.38;;;11.02;64.15
4814;BME280;15375;48.540;9.268;2023-04-08T12:24:35;97733.34;;;10.99;60.01
4814;BME280;15375;48.540;9.268;2023-04-08T12:27:00;97758.84;;;11.15;59.58
4814;BME280;15375;48.540;9.268;2023-04-08T12:29:28;97755.09;;;11.06;58.44
4814;BME280;15375;48.540;9.268;2023-04-08T12:31:54;97747.34;;;11.01;59.77
4814;BME280;15375;48.540;9.268;2023-04-08T12:34:20;97756.00;;;10.96;59.12
4814;BME280;15375;48.540;9.268;2023-04-08T12:36:45;97742.19;;;10.79;59.82
4814;BME280;15375;48.540;9.268;2023-04-08T12:39:11;97743.34;;;10.78;59.88
4814;BME280;15375;48.540;9.268;2023-04-08T12:41:36;97756.91;;;10.85;60.19
4814;BME280;15375;48.540;9.268;2023-04-08T12:44:02;97713.91;;;10.63;58.69
4814;BME280;15375;48.540;9.268;2023-04-08T12:46:27;97682.50;;;10.51;58.43
4814;BME280;15375;48.540;9.268;2023-04-08T12:48:53;97716.53;;;10.70;58.00
4814;BME280;15375;48.540;9.268;2023-04-08T12:51:18;97756.91;;;11.16;58.45
4814;BME280;15375;48.540;9.268;2023-04-08T12:53:44;97736.44;;;11.01;56.77
4814;BME280;15375;48.540;9.268;2023-04-08T12:56:09;97727.06;;;11.02;57.54
4814;BME280;15375;48.540;9.268;2023-04-08T12:58:35;97727.34;;;10.80;55.30
4814;BME280;15375;48.540;9.268;2023-04-08T13:01:00;97707.97;;;10.71;57.24
4814;BME280;15375;48.540;9.268;2023-04-08T13:03:26;97751.53;;;11.09;58.34
4814;BME280;15375;48.540;9.268;2023-04-08T13:05:54;97697.53;;;10.93;59.50
4814;BME280;15375;48.540;9.268;2023-04-08T13:08:20;97735.59;;;11.07;56.92
4814;BME280;15375;48.540;9.268;2023-04-08T13:10:46;97739.06;;;10.77;57.74
4814;BME280;15375;48.540;9.268;2023-04-08T13:13:11;97721.31;;;10.62;58.68
4814;BME280;15375;48.540;9.268;2023-04-08T13:15:38;97735.38;;;10.61;57.97
4814;BME280;15375;48.540;9.268;2023-04-08T13:18:12;97756.88;;;10.55;59.56
4814;BME280;15375;48.540;9.268;2023-04-08T13:20:38;97760.44;;;10.49;61.59
4814;BME280;15375;48.540;9.268;2023-04-08T13:23:04;97735.41;;;10.20;61.73
4814;BME280;15375;48.540;9.268;2023-04-08T13:25:29;97767.88;;;10.45;64.10
4814;BME280;15375;48.540;9.268;2023-04-08T13:27:55;97774.91;;;10.42;64.37
4814;BME280;15375;48.540;9.268;2023-04-08T13:30:21;97763.34;;;10.31;62.48
4814;BME280;15375;48.540;9.268;2023-04-08T13:32:46;97728.81;;;10.17;64.23